createdAt,value
2023-04-27T00:01:13.971Z,27.15
2023-04-27T00:03:40.828Z,27.18
2023-04-27T00:06:09.215Z,27.01
2023-04-27T00:08:35.913Z,26.84
2023-04-27T00:11:03.020Z,26.64
2023-04-27T00:13:29.622Z,26.74
2023-04-27T00:15:56.808Z,26.81
2023-04-27T00:18:23.513Z,26.68
2023-04-27T00:20:50.398Z,26.56
2023-04-27T00:23:17.494Z,26.46
2023-04-27T00:25:44.101Z,26.60
2023-04-27T00:28:10.986Z,26.40
2023-04-27T00:30:37.860Z,26.46
2023-04-27T00:33:04.551Z,26.38
2023-04-27T00:35:34.110Z,26.47
2023-04-27T00:38:01.111Z,26.60
2023-04-27T00:40:27.823Z,26.73
2023-04-27T00:42:55.002Z,26.66
2023-04-27T00:45:21.535Z,26.55
2023-04-27T00:47:48.175Z,26.68
2023-04-27T00:50:15.104Z,26.44
2023-04-27T00:52:41.841Z,26.54
2023-04-27T00:55:08.989Z,26.56
2023-04-27T00:57:35.709Z,26.44
2023-04-27T01:00:06.479Z,26.40
2023-04-27T01:02:34.399Z,26.62
2023-04-27T01:05:01.622Z,26.50
2023-04-27T01:07:28.531Z,26.54
2023-04-27T01:09:55.753Z,26.46
2023-04-27T01:12:22.377Z,26.62
2023-04-27T01:14:48.932Z,26.66
2023-04-27T01:17:15.964Z,26.68
2023-04-27T01:19:44.296Z,26.88
2023-04-27T01:22:10.798Z,26.52
2023-04-27T01:24:38.117Z,26.67
2023-04-27T01:27:05.184Z,26.76
2023-04-27T01:29:32.132Z,26.69
2023-04-27T01:31:59.139Z,26.84
2023-04-27T01:34:25.866Z,26.94
2023-04-27T01:36:52.494Z,26.97
2023-04-27T01:39:20.864Z,26.85
2023-04-27T01:41:47.535Z,26.84
2023-04-27T01:44:14.175Z,26.87
2023-04-27T01:46:40.863Z,26.89
2023-04-27T01:49:07.526Z,26.73
2023-04-27T01:51:34.257Z,26.88
2023-04-27T01:54:00.952Z,27.04
2023-04-27T01:56:28.059Z,26.90
2023-04-27T01:58:55.821Z,26.79
2023-04-27T02:01:23.171Z,26.68
2023-04-27T02:03:49.851Z,26.90
2023-04-27T02:06:16.558Z,26.77
2023-04-27T02:08:43.076Z,26.88
2023-04-27T02:11:10.007Z,26.75
2023-04-27T02:13:36.616Z,26.72
2023-04-27T02:16:04.499Z,26.83
2023-04-27T02:18:31.884Z,26.69
2023-04-27T02:20:58.548Z,26.80
2023-04-27T02:23:25.198Z,26.75
2023-04-27T02:25:51.728Z,26.53
2023-04-27T02:28:18.284Z,26.81
2023-04-27T02:30:45.251Z,26.82
2023-04-27T02:33:14.054Z,26.67
2023-04-27T02:35:40.680Z,26.58
2023-04-27T02:38:07.308Z,26.46
2023-04-27T02:40:36.892Z,26.65
2023-04-27T02:43:05.943Z,26.45
2023-04-27T02:45:36.458Z,26.58
2023-04-27T02:48:06.165Z,26.81
2023-04-27T02:50:34.037Z,26.75
2023-04-27T02:53:00.683Z,26.68
2023-04-27T02:55:27.544Z,26.74
2023-04-27T02:57:54.208Z,26.73
2023-04-27T03:00:21.525Z,26.91
2023-04-27T03:02:48.178Z,26.86
2023-04-27T03:05:15.496Z,26.79
2023-04-27T03:07:42.810Z,26.85
2023-04-27T03:10:09.877Z,26.72
2023-04-27T03:12:36.629Z,26.73
2023-04-27T03:15:03.604Z,26.67
2023-04-27T03:17:30.588Z,26.64
2023-04-27T03:19:57.795Z,26.48
2023-04-27T03:22:24.786Z,26.75
2023-04-27T03:24:51.450Z,26.54
2023-04-27T03:27:18.116Z,26.55
2023-04-27T03:29:44.902Z,26.52
2023-04-27T03:32:11.648Z,26.78
2023-04-27T03:34:38.288Z,26.72
2023-04-27T03:37:05.876Z,26.75
2023-04-27T03:39:36.001Z,26.75
2023-04-27T03:42:03.611Z,26.81
2023-04-27T03:44:35.668Z,26.70
2023-04-27T03:47:02.391Z,26.66
2023-04-27T03:49:29.158Z,26.49
2023-04-27T03:51:55.760Z,26.72
2023-04-27T03:54:22.449Z,26.65
2023-04-27T03:56:49.729Z,26.58
2023-04-27T03:59:20.108Z,26.82
2023-04-27T04:01:49.476Z,26.80
2023-04-27T04:04:16.181Z,26.73
2023-04-27T04:06:43.033Z,26.63
2023-04-27T04:09:12.215Z,26.83
2023-04-27T04:11:39.452Z,26.70
2023-04-27T04:14:06.357Z,26.66
2023-04-27T04:16:33.200Z,26.54
2023-04-27T04:18:59.841Z,26.59
2023-04-27T04:21:26.457Z,26.48
2023-04-27T04:23:53.322Z,26.30
2023-04-27T04:26:20.092Z,26.07
2023-04-27T04:28:47.129Z,26.00
2023-04-27T04:31:16.832Z,25.98
2023-04-27T04:33:44.240Z,25.97
2023-04-27T04:36:10.970Z,26.05
2023-04-27T04:38:38.263Z,26.19
2023-04-27T04:41:04.854Z,26.23
2023-04-27T04:43:32.848Z,26.07
2023-04-27T04:46:01.392Z,26.29
2023-04-27T04:48:28.669Z,26.13
2023-04-27T04:50:56.511Z,26.26
2023-04-27T04:53:23.341Z,26.28
2023-04-27T04:55:50.140Z,26.17
2023-04-27T04:58:17.351Z,26.41
2023-04-27T05:00:44.319Z,26.11
2023-04-27T05:03:11.396Z,26.38
2023-04-27T05:05:38.266Z,26.33
2023-04-27T05:08:04.910Z,26.45
2023-04-27T05:10:31.545Z,26.45
2023-04-27T05:12:58.243Z,26.34
2023-04-27T05:15:25.540Z,26.38
2023-04-27T05:17:53.610Z,26.26
2023-04-27T05:20:20.816Z,26.28
2023-04-27T05:22:47.601Z,26.68
2023-04-27T05:25:14.325Z,26.56
2023-04-27T05:27:40.796Z,26.68
2023-04-27T05:30:08.037Z,26.69
2023-04-27T05:32:36.257Z,27.00
2023-04-27T05:35:04.145Z,26.83
2023-04-27T05:37:30.717Z,27.22
2023-04-27T05:39:57.419Z,27.04
2023-04-27T05:42:23.907Z,27.20
2023-04-27T05:44:50.482Z,27.48
2023-04-27T05:47:17.107Z,27.42
2023-04-27T05:49:43.771Z,27.42
2023-04-27T05:52:10.750Z,27.42
2023-04-27T05:54:37.286Z,27.28
2023-04-27T05:57:04.036Z,27.40
2023-04-27T05:59:30.557Z,27.41
2023-04-27T06:01:57.942Z,27.60
2023-04-27T06:04:24.674Z,27.54
2023-04-27T06:06:51.325Z,27.17
2023-04-27T06:09:17.852Z,26.12
2023-04-27T06:11:46.672Z,26.33
2023-04-27T06:14:13.635Z,26.25
2023-04-27T06:16:40.547Z,26.13
2023-04-27T06:19:07.398Z,25.78
2023-04-27T06:21:34.233Z,25.72
2023-04-27T06:24:01.164Z,25.57
2023-04-27T06:26:27.730Z,25.19
2023-04-27T06:28:54.578Z,25.15
2023-04-27T06:31:21.247Z,25.10
2023-04-27T06:33:47.995Z,24.89
2023-04-27T06:36:14.863Z,25.09
2023-04-27T06:38:41.537Z,24.91
2023-04-27T06:41:08.020Z,24.91
2023-04-27T06:43:34.590Z,25.12
2023-04-27T06:46:01.191Z,25.15
2023-04-27T06:48:28.033Z,25.32
2023-04-27T06:50:54.784Z,25.07
2023-04-27T06:53:21.349Z,25.25
2023-04-27T06:55:48.675Z,25.22
2023-04-27T06:58:15.841Z,25.29
2023-04-27T07:00:42.578Z,25.42
2023-04-27T07:03:09.274Z,25.45
2023-04-27T07:05:36.296Z,25.25
2023-04-27T07:08:06.182Z,25.37
2023-04-27T07:10:35.053Z,25.16
2023-04-27T07:13:02.235Z,25.60
2023-04-27T07:15:30.462Z,25.77
2023-04-27T07:17:57.142Z,25.56
2023-04-27T07:20:23.816Z,25.70
2023-04-27T07:22:50.555Z,25.76
2023-04-27T07:25:17.129Z,25.94
2023-04-27T07:27:44.735Z,26.06
2023-04-27T07:30:13.452Z,26.49
2023-04-27T07:32:41.188Z,24.75
2023-04-27T07:35:10.911Z,25.06
2023-04-27T07:37:38.010Z,24.76
2023-04-27T07:40:15.607Z,24.66
2023-04-27T07:42:42.690Z,-1.00
2023-04-27T07:45:09.738Z,-1.00
2023-04-27T07:47:37.168Z,24.12
2023-04-27T07:50:07.942Z,24.53
2023-04-27T07:52:34.559Z,24.66
2023-04-27T07:55:01.396Z,24.78
2023-04-27T07:57:28.077Z,25.43
2023-04-27T07:59:55.922Z,26.29
2023-04-27T08:02:22.785Z,26.66
2023-04-27T08:04:49.961Z,26.65
2023-04-27T08:07:17.568Z,27.13
2023-04-27T08:09:44.728Z,27.42
2023-04-27T08:12:11.222Z,27.31
2023-04-27T08:14:37.809Z,27.34
2023-04-27T08:17:05.126Z,27.53
2023-04-27T08:19:31.913Z,27.46
2023-04-27T08:21:58.719Z,27.66
2023-04-27T08:24:25.492Z,27.63
2023-04-27T08:26:52.137Z,27.33
2023-04-27T08:29:26.946Z,27.26
2023-04-27T08:31:58.093Z,27.14
2023-04-27T08:34:25.090Z,27.07
2023-04-27T08:36:51.866Z,27.06
2023-04-27T08:39:18.861Z,26.92
2023-04-27T08:41:45.665Z,26.74
2023-04-27T08:44:12.554Z,26.69
2023-04-27T08:46:39.599Z,26.50
2023-04-27T08:49:09.432Z,26.52
2023-04-27T08:51:36.469Z,26.61
2023-04-27T08:54:03.164Z,26.60
2023-04-27T08:56:29.938Z,26.56
2023-04-27T08:58:57.334Z,26.50
2023-04-27T09:01:24.636Z,26.55
2023-04-27T09:03:58.442Z,26.43
2023-04-27T09:06:32.208Z,26.36
2023-04-27T09:08:59.282Z,26.33
2023-04-27T09:11:37.491Z,26.18
2023-04-27T09:14:19.365Z,26.40
2023-04-27T09:16:56.742Z,26.34
2023-04-27T09:19:24.791Z,26.26
2023-04-27T09:22:01.780Z,26.16
2023-04-27T09:24:28.339Z,26.24
2023-04-27T09:26:54.904Z,26.08
2023-04-27T09:29:32.382Z,26.00
2023-04-27T09:31:59.023Z,26.01
2023-04-27T09:34:26.179Z,25.80
2023-04-27T09:36:52.844Z,26.08
2023-04-27T09:39:19.758Z,26.02
2023-04-27T09:41:46.325Z,26.01
2023-04-27T09:44:13.243Z,25.88
2023-04-27T09:46:39.882Z,25.69
2023-04-27T09:49:06.549Z,26.01
2023-04-27T09:51:33.879Z,25.84
2023-04-27T09:54:00.530Z,25.94
2023-04-27T09:56:34.373Z,25.60
2023-04-27T09:59:17.570Z,25.77
2023-04-27T10:01:47.434Z,25.80
2023-04-27T10:04:23.376Z,25.78
2023-04-27T10:06:53.070Z,25.72
2023-04-27T10:09:23.198Z,25.81
2023-04-27T10:11:51.074Z,25.96
2023-04-27T10:14:21.918Z,25.74
2023-04-27T10:16:56.264Z,25.74
2023-04-27T10:19:23.773Z,25.84
2023-04-27T10:21:56.380Z,25.81
2023-04-27T10:24:43.618Z,25.79
2023-04-27T10:27:11.719Z,26.11
2023-04-27T10:29:41.325Z,25.82
2023-04-27T10:32:20.696Z,25.67
2023-04-27T10:34:48.461Z,25.75
2023-04-27T10:37:15.252Z,25.89
2023-04-27T10:39:47.716Z,25.80
2023-04-27T10:42:26.137Z,25.83
2023-04-27T10:44:54.448Z,25.67
2023-04-27T10:47:23.042Z,25.69
2023-04-27T10:49:53.977Z,25.55
2023-04-27T10:52:20.587Z,25.54
2023-04-27T10:54:47.206Z,25.81
2023-04-27T10:57:13.744Z,25.83
2023-04-27T10:59:52.197Z,25.73
2023-04-27T11:02:26.646Z,25.54
2023-04-27T11:04:53.668Z,25.53
2023-04-27T11:07:24.982Z,25.84
2023-04-27T11:09:51.774Z,25.67
2023-04-27T11:12:18.327Z,25.78
2023-04-27T11:14:45.397Z,25.66
2023-04-27T11:17:12.807Z,25.52
2023-04-27T11:19:48.282Z,25.69
2023-04-27T11:22:18.538Z,25.78
2023-04-27T11:24:49.014Z,25.58
2023-04-27T11:27:15.964Z,25.81
2023-04-27T11:29:42.637Z,25.50
2023-04-27T11:32:19.258Z,25.59
2023-04-27T11:34:53.712Z,25.82
2023-04-27T11:37:23.234Z,25.92
2023-04-27T11:39:50.365Z,25.98
2023-04-27T11:42:18.040Z,25.75
2023-04-27T11:45:01.410Z,25.70
2023-04-27T11:47:29.506Z,25.77
2023-04-27T11:49:58.940Z,25.87
2023-04-27T11:52:29.653Z,25.71
2023-04-27T11:54:56.198Z,25.77
2023-04-27T11:57:26.639Z,25.76
2023-04-27T11:59:53.520Z,25.60
2023-04-27T12:02:23.132Z,25.67
2023-04-27T12:04:50.448Z,25.50
2023-04-27T12:07:17.486Z,25.49
2023-04-27T12:09:44.114Z,25.47
2023-04-27T12:12:12.295Z,25.58
2023-04-27T12:14:39.422Z,25.58
2023-04-27T12:17:06.934Z,25.52
2023-04-27T12:19:33.618Z,25.60
2023-04-27T12:22:00.244Z,25.50
2023-04-27T12:24:26.813Z,25.47
2023-04-27T12:26:53.780Z,25.46
2023-04-27T12:29:21.014Z,25.60
2023-04-27T12:31:47.718Z,25.60
2023-04-27T12:34:15.182Z,25.45
2023-04-27T12:36:42.234Z,25.54
2023-04-27T12:39:17.895Z,25.59
2023-04-27T12:41:44.951Z,25.72
2023-04-27T12:44:12.301Z,25.52
2023-04-27T12:46:39.656Z,25.62
2023-04-27T12:49:07.122Z,25.58
2023-04-27T12:51:34.099Z,25.67
2023-04-27T12:54:02.514Z,25.70
2023-04-27T12:56:29.215Z,25.55
2023-04-27T12:58:55.752Z,25.62
2023-04-27T13:01:24.347Z,25.74
2023-04-27T13:03:51.838Z,25.56
2023-04-27T13:06:19.376Z,25.68
2023-04-27T13:08:46.061Z,25.44
2023-04-27T13:11:12.668Z,25.50
2023-04-27T13:13:39.625Z,25.59
2023-04-27T13:16:06.421Z,25.77
2023-04-27T13:18:35.081Z,25.52
2023-04-27T13:21:02.740Z,25.59
2023-04-27T13:23:29.420Z,25.68
2023-04-27T13:25:56.126Z,25.50
2023-04-27T13:28:22.921Z,25.59
2023-04-27T13:30:50.558Z,25.54
2023-04-27T13:33:23.124Z,25.52
2023-04-27T13:35:53.319Z,25.48
2023-04-27T13:38:20.027Z,25.64
2023-04-27T13:40:46.743Z,25.89
2023-04-27T13:43:13.357Z,25.67
2023-04-27T13:45:41.815Z,25.55
2023-04-27T13:48:08.812Z,25.61
2023-04-27T13:50:36.060Z,25.59
2023-04-27T13:53:02.637Z,25.47
2023-04-27T13:55:29.566Z,25.47
2023-04-27T13:57:57.006Z,25.55
2023-04-27T14:00:23.735Z,25.34
2023-04-27T14:02:50.725Z,25.50
2023-04-27T14:05:17.362Z,25.37
2023-04-27T14:07:43.886Z,25.29
2023-04-27T14:10:10.662Z,25.10
2023-04-27T14:12:37.364Z,25.24
2023-04-27T14:15:04.315Z,25.06
2023-04-27T14:17:31.808Z,24.89
2023-04-27T14:19:58.835Z,24.86
2023-04-27T14:22:25.628Z,25.15
2023-04-27T14:24:52.294Z,25.12
2023-04-27T14:27:19.175Z,25.05
2023-04-27T14:29:45.982Z,25.06
2023-04-27T14:32:12.852Z,25.25
2023-04-27T14:34:39.572Z,25.11
2023-04-27T14:37:06.220Z,25.14
2023-04-27T14:39:33.267Z,25.12
2023-04-27T14:41:59.775Z,24.97
2023-04-27T14:44:26.538Z,24.97
2023-04-27T14:46:53.268Z,24.97
2023-04-27T14:49:20.414Z,25.02
2023-04-27T14:51:47.040Z,24.82
2023-04-27T14:54:14.087Z,24.79
2023-04-27T14:56:40.693Z,24.63
2023-04-27T14:59:07.302Z,24.34
2023-04-27T15:01:33.921Z,24.36
2023-04-27T15:04:00.930Z,24.19
2023-04-27T15:06:27.990Z,24.10
2023-04-27T15:08:55.050Z,24.16
2023-04-27T15:11:21.692Z,23.97
2023-04-27T15:13:49.417Z,23.95
2023-04-27T15:16:15.950Z,23.81
2023-04-27T15:18:42.665Z,23.75
2023-04-27T15:21:09.373Z,23.77
2023-04-27T15:23:36.596Z,23.69
2023-04-27T15:26:03.229Z,23.82
2023-04-27T15:28:30.001Z,23.80
2023-04-27T15:30:56.708Z,23.68
2023-04-27T15:33:23.479Z,23.76
2023-04-27T15:35:50.332Z,23.52
2023-04-27T15:38:18.970Z,23.59
2023-04-27T15:40:45.684Z,23.69
2023-04-27T15:43:12.268Z,23.44
2023-04-27T15:45:39.267Z,23.57
2023-04-27T15:48:06.193Z,23.33
2023-04-27T15:50:32.770Z,23.52
2023-04-27T15:52:59.328Z,23.46
2023-04-27T15:55:26.164Z,23.36
2023-04-27T15:57:52.918Z,23.38
2023-04-27T16:00:21.628Z,23.30
2023-04-27T16:02:48.328Z,23.17
2023-04-27T16:05:15.861Z,23.20
2023-04-27T16:07:43.705Z,23.15
2023-04-27T16:10:11.055Z,23.21
2023-04-27T16:12:38.297Z,23.35
2023-04-27T16:15:07.351Z,23.20
2023-04-27T16:17:35.473Z,23.12
2023-04-27T16:20:06.077Z,23.11
2023-04-27T16:22:36.334Z,23.14
2023-04-27T16:25:06.113Z,23.25
2023-04-27T16:27:33.042Z,23.28
2023-04-27T16:29:59.859Z,23.33
2023-04-27T16:32:26.394Z,23.20
2023-04-27T16:34:53.083Z,23.37
2023-04-27T16:37:20.166Z,23.43
2023-04-27T16:39:46.803Z,23.44
2023-04-27T16:42:18.083Z,23.51
2023-04-27T16:44:45.287Z,23.61
2023-04-27T16:47:12.282Z,23.62
2023-04-27T16:49:39.233Z,23.62
2023-04-27T16:52:05.962Z,23.70
2023-04-27T16:54:32.736Z,23.81
2023-04-27T16:56:59.555Z,23.77
2023-04-27T16:59:26.158Z,23.51
2023-04-27T17:01:52.991Z,23.72
2023-04-27T17:04:19.781Z,23.99
2023-04-27T17:06:47.885Z,23.79
2023-04-27T17:09:14.833Z,23.79
2023-04-27T17:11:41.744Z,23.92
2023-04-27T17:14:08.825Z,23.67
2023-04-27T17:16:35.424Z,23.73
2023-04-27T17:19:03.107Z,23.90
2023-04-27T17:21:30.992Z,23.63
2023-04-27T17:23:57.690Z,23.80
2023-04-27T17:26:24.515Z,24.11
2023-04-27T17:28:51.174Z,23.97
2023-04-27T17:31:18.036Z,24.00
2023-04-27T17:33:45.312Z,24.07
2023-04-27T17:36:12.328Z,24.11
2023-04-27T17:38:39.188Z,24.13
2023-04-27T17:41:05.899Z,24.06
2023-04-27T17:43:32.438Z,24.20
2023-04-27T17:45:59.150Z,24.16
2023-04-27T17:48:26.275Z,24.22
2023-04-27T17:50:52.847Z,24.12
2023-04-27T17:53:19.518Z,24.23
2023-04-27T17:55:47.033Z,24.33
2023-04-27T17:58:16.568Z,24.50
2023-04-27T18:00:43.299Z,24.62
2023-04-27T18:03:10.988Z,24.52
2023-04-27T18:05:38.262Z,24.60
2023-04-27T18:08:05.320Z,24.69
2023-04-27T18:10:32.105Z,24.50
2023-04-27T18:12:58.800Z,24.68
2023-04-27T18:15:25.521Z,24.73
2023-04-27T18:17:52.130Z,24.69
2023-04-27T18:20:19.038Z,24.75
2023-04-27T18:22:45.912Z,24.83
2023-04-27T18:25:12.792Z,24.98
2023-04-27T18:27:42.228Z,24.73
2023-04-27T18:30:08.893Z,24.82
2023-04-27T18:32:35.881Z,24.74
2023-04-27T18:35:04.932Z,24.73
2023-04-27T18:37:32.545Z,24.83
2023-04-27T18:39:59.304Z,24.78
2023-04-27T18:42:26.054Z,24.89
2023-04-27T18:44:58.167Z,24.77
2023-04-27T18:47:26.589Z,24.72
2023-04-27T18:49:53.143Z,24.71
2023-04-27T18:52:21.297Z,24.99
2023-04-27T18:54:47.768Z,24.82
2023-04-27T18:57:14.597Z,24.69
2023-04-27T18:59:41.474Z,24.78
2023-04-27T19:02:08.408Z,24.85
2023-04-27T19:04:35.290Z,24.65
2023-04-27T19:07:02.034Z,24.64
2023-04-27T19:09:28.895Z,24.70
2023-04-27T19:12:02.853Z,24.67
2023-04-27T19:14:30.910Z,24.59
2023-04-27T19:16:57.909Z,24.75
2023-04-27T19:19:25.932Z,24.72
2023-04-27T19:21:52.725Z,24.63
2023-04-27T19:24:19.324Z,24.61
2023-04-27T19:26:46.934Z,24.62
2023-04-27T19:29:13.761Z,24.65
2023-04-27T19:31:40.579Z,24.54
2023-04-27T19:34:07.379Z,24.63
2023-04-27T19:36:33.964Z,24.63
2023-04-27T19:39:00.763Z,24.45
2023-04-27T19:41:27.578Z,24.61
2023-04-27T19:43:54.432Z,24.65
2023-04-27T19:46:21.087Z,24.45
2023-04-27T19:48:47.813Z,24.38
2023-04-27T19:51:14.351Z,24.44
2023-04-27T19:53:41.213Z,24.36
2023-04-27T19:56:09.064Z,24.37
2023-04-27T19:58:36.538Z,24.44
2023-04-27T20:01:03.421Z,24.19
2023-04-27T20:03:30.300Z,24.19
2023-04-27T20:05:57.372Z,24.25
2023-04-27T20:08:24.720Z,24.26
2023-04-27T20:10:51.551Z,24.13
2023-04-27T20:13:18.156Z,24.10
2023-04-27T20:15:46.009Z,24.13
2023-04-27T20:18:13.058Z,24.08
2023-04-27T20:20:41.308Z,23.90
2023-04-27T20:23:07.970Z,24.07
2023-04-27T20:25:34.471Z,23.85
2023-04-27T20:28:01.317Z,23.64
2023-04-27T20:30:28.059Z,23.74
2023-04-27T20:32:55.888Z,23.61
2023-04-27T20:35:23.450Z,23.69
2023-04-27T20:37:51.487Z,23.72
2023-04-27T20:40:18.362Z,23.83
2023-04-27T20:42:45.244Z,23.69
2023-04-27T20:45:12.196Z,23.52
2023-04-27T20:47:39.138Z,23.72
2023-04-27T20:50:07.219Z,23.47
2023-04-27T20:52:34.637Z,23.56
2023-04-27T20:55:03.273Z,23.42
2023-04-27T20:57:29.981Z,23.38
2023-04-27T20:59:57.226Z,23.51
2023-04-27T21:02:23.976Z,23.41
2023-04-27T21:04:51.340Z,23.48
2023-04-27T21:07:17.934Z,23.53
2023-04-27T21:09:45.080Z,23.39
2023-04-27T21:12:13.952Z,23.38
2023-04-27T21:14:40.523Z,23.43
2023-04-27T21:17:07.439Z,23.55
2023-04-27T21:19:34.668Z,23.62
2023-04-27T21:22:01.354Z,23.72
2023-04-27T21:24:28.093Z,23.73
2023-04-27T21:26:54.793Z,23.61
2023-04-27T21:29:21.427Z,23.59
2023-04-27T21:31:47.947Z,23.80
2023-04-27T21:34:14.657Z,23.72
2023-04-27T21:36:41.577Z,23.69
2023-04-27T21:39:08.103Z,23.71
2023-04-27T21:41:35.134Z,23.79
2023-04-27T21:44:01.961Z,23.65
2023-04-27T21:46:28.656Z,23.80
2023-04-27T21:48:55.343Z,23.98
2023-04-27T21:51:21.975Z,23.84
2023-04-27T21:53:48.475Z,23.93
2023-04-27T21:56:15.147Z,23.81
2023-04-27T21:58:41.902Z,23.86
2023-04-27T22:01:09.669Z,23.84
2023-04-27T22:03:37.628Z,23.85
2023-04-27T22:06:05.375Z,23.85
2023-04-27T22:08:32.128Z,23.77
2023-04-27T22:10:58.875Z,23.65
2023-04-27T22:13:25.563Z,23.66
2023-04-27T22:15:52.331Z,23.73
2023-04-27T22:18:19.123Z,23.80
2023-04-27T22:20:46.626Z,23.73
2023-04-27T22:23:13.123Z,23.87
2023-04-27T22:25:41.987Z,23.77
2023-04-27T22:28:09.430Z,23.81
2023-04-27T22:30:36.417Z,23.61
2023-04-27T22:33:03.209Z,23.74
2023-04-27T22:35:29.777Z,23.72
2023-04-27T22:37:57.116Z,23.68
2023-04-27T22:40:23.764Z,23.70
2023-04-27T22:42:52.183Z,23.67
2023-04-27T22:45:18.831Z,23.53
2023-04-27T22:47:45.451Z,23.66
2023-04-27T22:50:12.708Z,23.72
2023-04-27T22:52:41.392Z,23.74
2023-04-27T22:55:08.692Z,23.81
2023-04-27T22:57:35.304Z,23.65
2023-04-27T23:00:04.608Z,23.69
2023-04-27T23:02:31.813Z,23.86
2023-04-27T23:04:58.634Z,23.72
2023-04-27T23:07:25.272Z,23.91
2023-04-27T23:09:52.122Z,23.68
2023-04-27T23:12:20.011Z,23.84
2023-04-27T23:14:46.545Z,23.81
2023-04-27T23:17:14.691Z,23.78
2023-04-27T23:19:41.271Z,23.76
2023-04-27T23:22:07.778Z,23.76
2023-04-27T23:24:34.774Z,23.83
2023-04-27T23:27:01.514Z,23.74
2023-04-27T23:29:28.461Z,23.79
2023-04-27T23:31:55.621Z,23.90
2023-04-27T23:34:22.241Z,23.93
2023-04-27T23:36:48.960Z,23.75
2023-04-27T23:39:15.754Z,23.77
2023-04-27T23:41:42.393Z,23.88
2023-04-27T23:44:09.001Z,23.82
2023-04-27T23:46:35.840Z,23.80
2023-04-27T23:49:02.556Z,23.86
2023-04-27T23:51:29.201Z,23.63
2023-04-27T23:53:55.957Z,23.73
2023-04-27T23:56:22.741Z,23.75
2023-04-27T23:58:49.574Z,23.75
